createdAt,value
2023-03-17T00:00:18.872Z,292
2023-03-17T00:05:18.918Z,315
2023-03-17T00:10:15.813Z,315
2023-03-17T00:15:15.860Z,292
2023-03-17T00:20:19.114Z,292
2023-03-17T00:25:18.906Z,292
2023-03-17T00:30:18.995Z,292
2023-03-17T00:35:19.002Z,292
2023-03-17T01:00:19.031Z,292
2023-03-17T01:15:19.053Z,292
2023-03-17T01:20:19.095Z,292
2023-03-17T01:25:19.068Z,292
2023-03-17T01:30:19.098Z,315
2023-03-17T01:35:19.101Z,292
2023-03-17T03:35:19.377Z,338
2023-03-17T03:40:19.475Z,315
2023-03-17T04:30:18.662Z,315
2023-03-17T05:25:18.874Z,292
2023-03-17T13:25:19.772Z,158
2023-03-17T13:30:19.774Z,158
2023-03-17T13:35:19.697Z,135
2023-03-17T13:40:19.859Z,135
2023-03-17T13:45:16.723Z,135
2023-03-17T13:50:16.770Z,158
2023-03-17T13:55:20.037Z,158
2023-03-17T14:00:19.925Z,158
2023-03-17T14:05:19.834Z,158
2023-03-17T14:10:19.903Z,158
2023-03-17T14:15:20.001Z,135
2023-03-17T14:20:19.870Z,112
2023-03-17T14:25:19.908Z,158
2023-03-17T14:30:20.048Z,112
2023-03-17T14:35:20.033Z,158
2023-03-17T14:40:16.809Z,158
2023-03-17T14:45:17.101Z,135
2023-03-17T14:50:19.954Z,158
2023-03-17T14:55:20.100Z,112
2023-03-17T15:00:19.994Z,135
2023-03-17T15:05:20.017Z,112
2023-03-17T15:10:20.067Z,90
2023-03-17T15:15:20.014Z,112
2023-03-17T15:20:20.070Z,158
2023-03-17T15:25:20.120Z,135
2023-03-17T15:30:16.998Z,158
2023-03-17T15:35:16.966Z,112
2023-03-17T15:40:20.259Z,158
2023-03-17T15:45:20.141Z,90
2023-03-17T15:50:20.015Z,112
2023-03-17T15:55:20.188Z,135
2023-03-17T16:00:20.082Z,112
2023-03-17T16:05:20.179Z,158
2023-03-17T16:10:20.112Z,135
2023-03-17T16:15:23.346Z,158
2023-03-17T16:20:20.139Z,112
2023-03-17T16:25:17.129Z,135
2023-03-17T16:30:17.157Z,112
2023-03-17T16:35:20.308Z,135
2023-03-17T16:40:20.232Z,90
2023-03-17T16:45:20.310Z,112
2023-03-17T16:50:20.277Z,158
2023-03-17T16:55:20.321Z,158
2023-03-17T17:00:20.201Z,135
2023-03-17T17:05:20.418Z,90
2023-03-17T17:10:20.280Z,112
2023-03-17T17:15:17.220Z,90
2023-03-17T17:20:17.152Z,112
2023-03-17T17:25:20.313Z,112
2023-03-17T17:30:20.293Z,90
2023-03-17T17:35:20.321Z,112
2023-03-17T17:40:20.359Z,90
2023-03-17T17:45:20.395Z,112
2023-03-17T17:50:20.275Z,135
2023-03-17T17:55:20.503Z,90
2023-03-17T18:00:20.366Z,90
2023-03-17T18:05:20.383Z,112
2023-03-17T18:10:17.312Z,90
2023-03-17T18:15:17.228Z,112
2023-03-17T18:20:20.386Z,112
2023-03-17T18:25:20.352Z,158
2023-03-17T18:30:20.472Z,90
2023-03-17T18:35:20.539Z,135
2023-03-17T18:40:20.540Z,112
2023-03-17T18:45:20.518Z,158
2023-03-17T18:50:20.460Z,158
2023-03-17T18:55:20.506Z,90
2023-03-17T19:00:20.492Z,90
2023-03-17T19:05:17.412Z,135
2023-03-17T19:10:20.542Z,112
2023-03-17T19:15:20.498Z,158
2023-03-17T19:20:20.545Z,112
2023-03-17T19:25:20.418Z,158
2023-03-17T19:30:20.624Z,112
2023-03-17T19:35:20.594Z,135
2023-03-17T19:40:20.525Z,90
2023-03-17T19:45:20.568Z,135
2023-03-17T19:50:20.645Z,90
2023-03-17T19:55:17.624Z,135
2023-03-17T20:00:18.583Z,90
2023-03-17T20:05:18.630Z,90
2023-03-17T20:10:18.672Z,135
2023-03-17T20:15:18.615Z,112
2023-03-17T20:20:18.620Z,112
2023-03-17T20:30:18.860Z,158
2023-03-17T20:35:15.584Z,135
2023-03-17T20:50:19.710Z,90
2023-03-17T20:55:19.742Z,90
2023-03-17T21:00:19.782Z,112
2023-03-17T21:10:16.615Z,112
2023-03-17T21:15:19.810Z,112
2023-03-17T21:25:19.831Z,135
2023-03-17T21:35:19.800Z,112
2023-03-17T22:10:19.922Z,22
2023-03-17T22:15:20.041Z,0
2023-03-17T22:20:19.856Z,0
2023-03-17T22:25:22.866Z,338
2023-03-17T22:35:19.865Z,338
2023-03-17T22:40:19.876Z,338
2023-03-17T22:45:19.898Z,338
2023-03-17T22:50:19.858Z,338
2023-03-17T22:55:16.864Z,338
2023-03-17T23:00:20.189Z,338
2023-03-17T23:05:20.035Z,338
2023-03-17T23:10:19.938Z,338
2023-03-17T23:50:16.919Z,315
